sensor_id;sensor_type;location;lat;lon;timestamp;P1;durP1;ratioP1;P2;durP2;ratioP2
51292;SDS011;37377;45.186;9.778;2022-11-23T00:03:46;12.48;;;10.75;;
51292;SDS011;37377;45.186;9.778;2022-11-23T00:06:13;13.85;;;11.18;;
51292;SDS011;37377;45.186;9.778;2022-11-23T00:08:40;18.88;;;10.70;;
51292;SDS011;37377;45.186;9.778;2022-11-23T00:11:07;18.33;;;11.98;;
51292;SDS011;37377;45.186;9.778;2022-11-23T00:13:35;16.25;;;12.02;;
51292;SDS011;37377;45.186;9.778;2022-11-23T00:16:05;13.13;;;11.60;;
51292;SDS011;37377;45.186;9.778;2022-11-23T00:18:33;15.20;;;12.02;;
51292;SDS011;37377;45.186;9.778;2022-11-23T00:21:04;12.98;;;11.65;;
51292;SDS011;37377;45.186;9.778;2022-11-23T00:23:30;13.07;;;11.57;;
51292;SDS011;37377;45.186;9.778;2022-11-23T00:25:57;14.63;;;10.55;;
51292;SDS011;37377;45.186;9.778;2022-11-23T00:28:24;13.95;;;11.90;;
51292;SDS011;37377;45.186;9.778;2022-11-23T00:30:51;14.48;;;11.43;;
51292;SDS011;37377;45.186;9.778;2022-11-23T00:33:18;13.55;;;11.02;;
51292;SDS011;37377;45.186;9.778;2022-11-23T00:35:45;13.02;;;11.32;;
51292;SDS011;37377;45.186;9.778;2022-11-23T00:38:12;12.07;;;10.93;;
51292;SDS011;37377;45.186;9.778;2022-11-23T00:40:39;11.77;;;10.48;;
51292;SDS011;37377;45.186;9.778;2022-11-23T00:43:05;12.65;;;11.27;;
51292;SDS011;37377;45.186;9.778;2022-11-23T00:45:33;12.10;;;10.43;;
51292;SDS011;37377;45.186;9.778;2022-11-23T00:47:59;13.90;;;10.77;;
51292;SDS011;37377;45.186;9.778;2022-11-23T00:50:27;12.93;;;11.70;;
51292;SDS011;37377;45.186;9.778;2022-11-23T00:52:54;15.73;;;11.85;;
51292;SDS011;37377;45.186;9.778;2022-11-23T00:55:21;19.77;;;11.88;;
51292;SDS011;37377;45.186;9.778;2022-11-23T00:57:48;14.57;;;11.85;;
51292;SDS011;37377;45.186;9.778;2022-11-23T01:00:15;18.35;;;12.68;;
51292;SDS011;37377;45.186;9.778;2022-11-23T01:02:42;18.35;;;13.27;;
51292;SDS011;37377;45.186;9.778;2022-11-23T01:05:09;15.82;;;13.18;;
51292;SDS011;37377;45.186;9.778;2022-11-23T01:07:36;16.75;;;12.60;;
51292;SDS011;37377;45.186;9.778;2022-11-23T01:10:03;15.13;;;13.43;;
51292;SDS011;37377;45.186;9.778;2022-11-23T01:12:31;15.80;;;13.15;;
51292;SDS011;37377;45.186;9.778;2022-11-23T01:14:58;15.43;;;13.10;;
51292;SDS011;37377;45.186;9.778;2022-11-23T01:17:27;19.17;;;13.82;;
51292;SDS011;37377;45.186;9.778;2022-11-23T01:19:54;20.63;;;13.85;;
51292;SDS011;37377;45.186;9.778;2022-11-23T01:22:20;16.05;;;12.82;;
51292;SDS011;37377;45.186;9.778;2022-11-23T01:24:48;14.93;;;13.25;;
51292;SDS011;37377;45.186;9.778;2022-11-23T01:27:15;14.73;;;12.95;;
51292;SDS011;37377;45.186;9.778;2022-11-23T01:29:43;16.95;;;13.77;;
51292;SDS011;37377;45.186;9.778;2022-11-23T01:32:09;15.80;;;12.63;;
51292;SDS011;37377;45.186;9.778;2022-11-23T01:34:37;15.18;;;12.95;;
51292;SDS011;37377;45.186;9.778;2022-11-23T01:37:03;15.05;;;12.00;;
51292;SDS011;37377;45.186;9.778;2022-11-23T01:39:30;14.48;;;12.55;;
51292;SDS011;37377;45.186;9.778;2022-11-23T01:41:57;13.38;;;11.82;;
51292;SDS011;37377;45.186;9.778;2022-11-23T01:44:25;14.02;;;11.35;;
51292;SDS011;37377;45.186;9.778;2022-11-23T01:46:53;17.67;;;11.98;;
51292;SDS011;37377;45.186;9.778;2022-11-23T01:49:20;14.73;;;11.63;;
51292;SDS011;37377;45.186;9.778;2022-11-23T01:51:48;12.02;;;10.73;;
51292;SDS011;37377;45.186;9.778;2022-11-23T01:54:17;14.98;;;10.90;;
51292;SDS011;37377;45.186;9.778;2022-11-23T01:56:47;11.65;;;10.45;;
51292;SDS011;37377;45.186;9.778;2022-11-23T01:59:16;41.83;;;11.93;;
51292;SDS011;37377;45.186;9.778;2022-11-23T02:01:44;57.47;;;9.95;;
51292;SDS011;37377;45.186;9.778;2022-11-23T02:04:13;45.92;;;10.00;;
51292;SDS011;37377;45.186;9.778;2022-11-23T02:06:44;92.40;;;11.68;;
51292;SDS011;37377;45.186;9.778;2022-11-23T02:09:13;200.38;;;13.70;;
51292;SDS011;37377;45.186;9.778;2022-11-23T02:11:40;628.35;;;25.17;;
51292;SDS011;37377;45.186;9.778;2022-11-23T02:14:10;705.90;;;30.13;;
51292;SDS011;37377;45.186;9.778;2022-11-23T02:16:37;612.97;;;24.10;;
51292;SDS011;37377;45.186;9.778;2022-11-23T02:19:13;295.85;;;13.02;;
51292;SDS011;37377;45.186;9.778;2022-11-23T02:21:41;283.35;;;13.55;;
51292;SDS011;37377;45.186;9.778;2022-11-23T02:24:18;350.70;;;16.58;;
51292;SDS011;37377;45.186;9.778;2022-11-23T02:26:45;144.10;;;10.68;;
51292;SDS011;37377;45.186;9.778;2022-11-23T02:29:13;333.10;;;16.95;;
51292;SDS011;37377;45.186;9.778;2022-11-23T02:31:41;26.48;;;8.27;;
51292;SDS011;37377;45.186;9.778;2022-11-23T02:34:08;15.55;;;8.57;;
51292;SDS011;37377;45.186;9.778;2022-11-23T02:36:38;12.15;;;9.07;;
51292;SDS011;37377;45.186;9.778;2022-11-23T02:39:15;11.15;;;9.30;;
51292;SDS011;37377;45.186;9.778;2022-11-23T02:41:45;280.45;;;12.55;;
51292;SDS011;37377;45.186;9.778;2022-11-23T02:44:33;9.60;;;8.23;;
51292;SDS011;37377;45.186;9.778;2022-11-23T02:47:01;9.00;;;8.25;;
51292;SDS011;37377;45.186;9.778;2022-11-23T02:49:30;9.43;;;8.52;;
51292;SDS011;37377;45.186;9.778;2022-11-23T02:51:57;9.77;;;8.88;;
51292;SDS011;37377;45.186;9.778;2022-11-23T02:54:25;9.02;;;8.23;;
51292;SDS011;37377;45.186;9.778;2022-11-23T02:56:52;8.25;;;7.45;;
51292;SDS011;37377;45.186;9.778;2022-11-23T02:59:19;9.38;;;8.55;;
51292;SDS011;37377;45.186;9.778;2022-11-23T03:01:49;8.70;;;7.88;;
51292;SDS011;37377;45.186;9.778;2022-11-23T03:04:16;6.85;;;6.25;;
51292;SDS011;37377;45.186;9.778;2022-11-23T03:06:46;7.35;;;6.68;;
51292;SDS011;37377;45.186;9.778;2022-11-23T03:09:13;7.95;;;7.20;;
51292;SDS011;37377;45.186;9.778;2022-11-23T03:11:40;9.02;;;8.20;;
51292;SDS011;37377;45.186;9.778;2022-11-23T03:14:07;10.10;;;8.00;;
51292;SDS011;37377;45.186;9.778;2022-11-23T03:16:42;11.18;;;7.63;;
51292;SDS011;37377;45.186;9.778;2022-11-23T03:19:09;10.02;;;8.23;;
51292;SDS011;37377;45.186;9.778;2022-11-23T03:21:36;7.60;;;6.90;;
51292;SDS011;37377;45.186;9.778;2022-11-23T03:24:06;10.02;;;4.97;;
51292;SDS011;37377;45.186;9.778;2022-11-23T03:26:34;7.18;;;5.70;;
51292;SDS011;37377;45.186;9.778;2022-11-23T03:31:37;147.98;;;6.43;;
51292;SDS011;37377;45.186;9.778;2022-11-23T03:34:08;215.90;;;11.52;;
51292;SDS011;37377;45.186;9.778;2022-11-23T03:36:36;32.58;;;7.75;;
51292;SDS011;37377;45.186;9.778;2022-11-23T03:39:03;36.85;;;8.25;;
51292;SDS011;37377;45.186;9.778;2022-11-23T03:41:52;13.95;;;7.63;;
51292;SDS011;37377;45.186;9.778;2022-11-23T03:44:24;9.50;;;6.80;;
51292;SDS011;37377;45.186;9.778;2022-11-23T03:46:51;14.57;;;7.25;;
51292;SDS011;37377;45.186;9.778;2022-11-23T03:49:18;6.50;;;5.97;;
51292;SDS011;37377;45.186;9.778;2022-11-23T03:51:44;8.38;;;6.22;;
51292;SDS011;37377;45.186;9.778;2022-11-23T03:54:12;15.07;;;6.85;;
51292;SDS011;37377;45.186;9.778;2022-11-23T03:56:39;7.70;;;6.57;;
51292;SDS011;37377;45.186;9.778;2022-11-23T03:59:06;7.00;;;6.35;;
51292;SDS011;37377;45.186;9.778;2022-11-23T04:01:33;7.18;;;6.57;;
51292;SDS011;37377;45.186;9.778;2022-11-23T04:04:05;13.38;;;6.38;;
51292;SDS011;37377;45.186;9.778;2022-11-23T04:06:52;7.13;;;6.53;;
51292;SDS011;37377;45.186;9.778;2022-11-23T04:09:23;9.05;;;8.15;;
51292;SDS011;37377;45.186;9.778;2022-11-23T04:12:02;23.02;;;8.65;;
51292;SDS011;37377;45.186;9.778;2022-11-23T04:14:29;63.30;;;8.05;;
51292;SDS011;37377;45.186;9.778;2022-11-23T04:16:59;99.28;;;10.07;;
51292;SDS011;37377;45.186;9.778;2022-11-23T04:19:29;48.92;;;9.40;;
51292;SDS011;37377;45.186;9.778;2022-11-23T04:21:57;49.42;;;10.23;;
51292;SDS011;37377;45.186;9.778;2022-11-23T04:24:26;111.53;;;10.85;;
51292;SDS011;37377;45.186;9.778;2022-11-23T04:26:55;190.35;;;10.13;;
51292;SDS011;37377;45.186;9.778;2022-11-23T04:29:23;121.40;;;9.65;;
51292;SDS011;37377;45.186;9.778;2022-11-23T04:31:52;275.67;;;16.75;;
51292;SDS011;37377;45.186;9.778;2022-11-23T04:34:20;297.92;;;17.80;;
51292;SDS011;37377;45.186;9.778;2022-11-23T04:36:49;182.80;;;17.42;;
51292;SDS011;37377;45.186;9.778;2022-11-23T04:39:19;138.40;;;14.35;;
51292;SDS011;37377;45.186;9.778;2022-11-23T04:42:12;87.60;;;12.75;;
51292;SDS011;37377;45.186;9.778;2022-11-23T04:44:45;180.43;;;14.27;;
51292;SDS011;37377;45.186;9.778;2022-11-23T04:47:14;161.18;;;14.43;;
51292;SDS011;37377;45.186;9.778;2022-11-23T04:49:43;388.80;;;24.77;;
51292;SDS011;37377;45.186;9.778;2022-11-23T04:52:10;78.22;;;14.77;;
51292;SDS011;37377;45.186;9.778;2022-11-23T04:54:43;64.23;;;15.83;;
51292;SDS011;37377;45.186;9.778;2022-11-23T04:57:10;51.50;;;15.02;;
51292;SDS011;37377;45.186;9.778;2022-11-23T04:59:38;45.47;;;15.27;;
51292;SDS011;37377;45.186;9.778;2022-11-23T05:02:06;74.70;;;16.05;;
51292;SDS011;37377;45.186;9.778;2022-11-23T05:04:42;76.88;;;16.02;;
51292;SDS011;37377;45.186;9.778;2022-11-23T05:07:11;27.52;;;16.10;;
51292;SDS011;37377;45.186;9.778;2022-11-23T05:09:39;26.80;;;15.90;;
51292;SDS011;37377;45.186;9.778;2022-11-23T05:12:15;26.08;;;16.48;;
51292;SDS011;37377;45.186;9.778;2022-11-23T05:14:43;36.40;;;17.17;;
51292;SDS011;37377;45.186;9.778;2022-11-23T05:17:13;25.98;;;16.45;;
51292;SDS011;37377;45.186;9.778;2022-11-23T05:19:40;19.92;;;16.25;;
51292;SDS011;37377;45.186;9.778;2022-11-23T05:22:07;31.38;;;16.38;;
51292;SDS011;37377;45.186;9.778;2022-11-23T05:24:36;24.48;;;16.70;;
51292;SDS011;37377;45.186;9.778;2022-11-23T05:27:09;58.00;;;16.75;;
51292;SDS011;37377;45.186;9.778;2022-11-23T05:29:37;33.05;;;16.90;;
51292;SDS011;37377;45.186;9.778;2022-11-23T05:32:05;41.28;;;15.10;;
51292;SDS011;37377;45.186;9.778;2022-11-23T05:34:32;22.83;;;13.82;;
51292;SDS011;37377;45.186;9.778;2022-11-23T05:37:01;19.23;;;13.02;;
51292;SDS011;37377;45.186;9.778;2022-11-23T05:39:28;14.18;;;12.77;;
51292;SDS011;37377;45.186;9.778;2022-11-23T05:41:57;21.17;;;12.93;;
51292;SDS011;37377;45.186;9.778;2022-11-23T05:44:35;52.90;;;12.98;;
51292;SDS011;37377;45.186;9.778;2022-11-23T05:47:04;19.08;;;11.55;;
51292;SDS011;37377;45.186;9.778;2022-11-23T05:49:33;15.40;;;12.68;;
51292;SDS011;37377;45.186;9.778;2022-11-23T05:52:03;13.95;;;12.45;;
51292;SDS011;37377;45.186;9.778;2022-11-23T05:54:30;13.48;;;12.07;;
51292;SDS011;37377;45.186;9.778;2022-11-23T05:57:09;12.43;;;11.13;;
51292;SDS011;37377;45.186;9.778;2022-11-23T05:59:40;28.40;;;12.05;;
51292;SDS011;37377;45.186;9.778;2022-11-23T06:02:10;14.38;;;12.60;;
51292;SDS011;37377;45.186;9.778;2022-11-23T06:04:37;23.25;;;13.10;;
51292;SDS011;37377;45.186;9.778;2022-11-23T06:07:08;61.58;;;14.57;;
51292;SDS011;37377;45.186;9.778;2022-11-23T06:09:53;26.65;;;13.38;;
51292;SDS011;37377;45.186;9.778;2022-11-23T06:12:21;25.95;;;11.95;;
51292;SDS011;37377;45.186;9.778;2022-11-23T06:14:48;36.67;;;12.65;;
51292;SDS011;37377;45.186;9.778;2022-11-23T06:17:19;17.60;;;11.27;;
51292;SDS011;37377;45.186;9.778;2022-11-23T06:19:48;77.20;;;10.50;;
51292;SDS011;37377;45.186;9.778;2022-11-23T06:22:16;16.30;;;9.10;;
51292;SDS011;37377;45.186;9.778;2022-11-23T06:24:51;70.57;;;9.32;;
51292;SDS011;37377;45.186;9.778;2022-11-23T06:27:34;28.05;;;9.27;;
51292;SDS011;37377;45.186;9.778;2022-11-23T06:30:07;79.20;;;9.75;;
51292;SDS011;37377;45.186;9.778;2022-11-23T06:32:36;16.90;;;10.02;;
51292;SDS011;37377;45.186;9.778;2022-11-23T06:35:03;29.77;;;11.82;;
51292;SDS011;37377;45.186;9.778;2022-11-23T06:37:33;26.27;;;10.02;;
51292;SDS011;37377;45.186;9.778;2022-11-23T06:40:00;16.63;;;10.38;;
51292;SDS011;37377;45.186;9.778;2022-11-23T06:42:27;21.88;;;11.02;;
51292;SDS011;37377;45.186;9.778;2022-11-23T06:45:11;15.02;;;9.27;;
51292;SDS011;37377;45.186;9.778;2022-11-23T06:47:44;11.85;;;10.65;;
51292;SDS011;37377;45.186;9.778;2022-11-23T06:50:14;36.80;;;9.93;;
51292;SDS011;37377;45.186;9.778;2022-11-23T06:52:43;11.00;;;9.90;;
51292;SDS011;37377;45.186;9.778;2022-11-23T06:55:10;13.63;;;10.20;;
51292;SDS011;37377;45.186;9.778;2022-11-23T06:57:40;31.00;;;10.13;;
51292;SDS011;37377;45.186;9.778;2022-11-23T07:00:08;13.88;;;10.48;;
51292;SDS011;37377;45.186;9.778;2022-11-23T07:02:42;18.85;;;13.10;;
51292;SDS011;37377;45.186;9.778;2022-11-23T07:05:17;15.55;;;9.70;;
51292;SDS011;37377;45.186;9.778;2022-11-23T07:07:48;16.42;;;7.97;;
51292;SDS011;37377;45.186;9.778;2022-11-23T07:10:42;8.40;;;7.22;;
51292;SDS011;37377;45.186;9.778;2022-11-23T07:13:13;9.18;;;8.27;;
51292;SDS011;37377;45.186;9.778;2022-11-23T07:15:57;22.23;;;9.57;;
51292;SDS011;37377;45.186;9.778;2022-11-23T07:18:28;24.75;;;8.98;;
51292;SDS011;37377;45.186;9.778;2022-11-23T07:21:00;50.63;;;9.98;;
51292;SDS011;37377;45.186;9.778;2022-11-23T07:23:27;255.40;;;15.05;;
51292;SDS011;37377;45.186;9.778;2022-11-23T07:25:54;69.63;;;9.65;;
51292;SDS011;37377;45.186;9.778;2022-11-23T07:28:24;13.77;;;10.10;;
51292;SDS011;37377;45.186;9.778;2022-11-23T07:31:05;12.82;;;8.52;;
51292;SDS011;37377;45.186;9.778;2022-11-23T07:33:32;10.90;;;9.80;;
51292;SDS011;37377;45.186;9.778;2022-11-23T07:36:02;8.65;;;7.03;;
51292;SDS011;37377;45.186;9.778;2022-11-23T07:38:31;8.57;;;7.72;;
51292;SDS011;37377;45.186;9.778;2022-11-23T07:41:01;9.75;;;8.80;;
51292;SDS011;37377;45.186;9.778;2022-11-23T07:43:54;9.07;;;8.27;;
51292;SDS011;37377;45.186;9.778;2022-11-23T07:46:21;9.90;;;8.73;;
51292;SDS011;37377;45.186;9.778;2022-11-23T07:48:48;19.35;;;12.38;;
51292;SDS011;37377;45.186;9.778;2022-11-23T07:53:48;31.52;;;10.40;;
51292;SDS011;37377;45.186;9.778;2022-11-23T07:56:15;18.20;;;9.48;;
51292;SDS011;37377;45.186;9.778;2022-11-23T07:58:42;12.32;;;10.48;;
51292;SDS011;37377;45.186;9.778;2022-11-23T08:01:15;14.45;;;9.55;;
51292;SDS011;37377;45.186;9.778;2022-11-23T08:03:49;32.80;;;14.85;;
51292;SDS011;37377;45.186;9.778;2022-11-23T08:06:22;15.45;;;13.73;;
51292;SDS011;37377;45.186;9.778;2022-11-23T08:08:49;14.27;;;10.55;;
51292;SDS011;37377;45.186;9.778;2022-11-23T08:11:21;15.18;;;8.55;;
51292;SDS011;37377;45.186;9.778;2022-11-23T08:13:50;15.45;;;8.77;;
51292;SDS011;37377;45.186;9.778;2022-11-23T08:16:18;13.40;;;10.15;;
51292;SDS011;37377;45.186;9.778;2022-11-23T08:18:48;11.75;;;9.85;;
51292;SDS011;37377;45.186;9.778;2022-11-23T08:21:23;21.58;;;10.45;;
51292;SDS011;37377;45.186;9.778;2022-11-23T08:23:53;16.77;;;11.18;;
51292;SDS011;37377;45.186;9.778;2022-11-23T08:26:24;16.95;;;9.23;;
51292;SDS011;37377;45.186;9.778;2022-11-23T08:28:59;9.35;;;7.97;;
51292;SDS011;37377;45.186;9.778;2022-11-23T08:31:27;8.27;;;7.05;;
51292;SDS011;37377;45.186;9.778;2022-11-23T08:34:01;21.67;;;11.40;;
51292;SDS011;37377;45.186;9.778;2022-11-23T08:36:34;45.28;;;26.02;;
51292;SDS011;37377;45.186;9.778;2022-11-23T08:39:09;11.40;;;9.25;;
51292;SDS011;37377;45.186;9.778;2022-11-23T08:41:42;7.30;;;5.97;;
51292;SDS011;37377;45.186;9.778;2022-11-23T08:44:16;11.95;;;6.38;;
51292;SDS011;37377;45.186;9.778;2022-11-23T08:46:44;6.05;;;4.90;;
51292;SDS011;37377;45.186;9.778;2022-11-23T08:49:15;5.28;;;4.78;;
51292;SDS011;37377;45.186;9.778;2022-11-23T08:51:44;5.45;;;4.93;;
51292;SDS011;37377;45.186;9.778;2022-11-23T08:54:18;14.63;;;5.40;;
51292;SDS011;37377;45.186;9.778;2022-11-23T08:56:49;8.45;;;5.22;;
51292;SDS011;37377;45.186;9.778;2022-11-23T08:59:18;9.43;;;4.97;;
51292;SDS011;37377;45.186;9.778;2022-11-23T09:01:48;9.65;;;4.78;;
51292;SDS011;37377;45.186;9.778;2022-11-23T09:04:20;6.28;;;5.63;;
51292;SDS011;37377;45.186;9.778;2022-11-23T09:06:54;6.00;;;5.15;;
51292;SDS011;37377;45.186;9.778;2022-11-23T09:09:24;8.75;;;5.07;;
51292;SDS011;37377;45.186;9.778;2022-11-23T09:11:56;13.48;;;5.30;;
51292;SDS011;37377;45.186;9.778;2022-11-23T09:14:30;11.13;;;6.60;;
51292;SDS011;37377;45.186;9.778;2022-11-23T09:17:02;13.45;;;5.50;;
51292;SDS011;37377;45.186;9.778;2022-11-23T09:19:38;9.20;;;5.60;;
51292;SDS011;37377;45.186;9.778;2022-11-23T09:22:15;10.20;;;6.35;;
51292;SDS011;37377;45.186;9.778;2022-11-23T09:24:49;7.38;;;5.97;;
51292;SDS011;37377;45.186;9.778;2022-11-23T09:27:17;7.13;;;6.32;;
51292;SDS011;37377;45.186;9.778;2022-11-23T09:29:50;12.88;;;7.13;;
51292;SDS011;37377;45.186;9.778;2022-11-23T09:32:17;8.68;;;7.13;;
51292;SDS011;37377;45.186;9.778;2022-11-23T09:34:44;11.30;;;7.32;;
51292;SDS011;37377;45.186;9.778;2022-11-23T09:37:13;8.10;;;7.30;;
51292;SDS011;37377;45.186;9.778;2022-11-23T09:39:44;11.10;;;8.27;;
51292;SDS011;37377;45.186;9.778;2022-11-23T09:47:52;15.05;;;8.65;;
51292;SDS011;37377;45.186;9.778;2022-11-23T09:53:28;18.25;;;8.68;;
51292;SDS011;37377;45.186;9.778;2022-11-23T09:55:56;10.63;;;7.57;;
51292;SDS011;37377;45.186;9.778;2022-11-23T09:58:25;9.38;;;7.43;;
51292;SDS011;37377;45.186;9.778;2022-11-23T10:01:02;16.83;;;8.02;;
51292;SDS011;37377;45.186;9.778;2022-11-23T10:03:31;12.38;;;7.07;;
51292;SDS011;37377;45.186;9.778;2022-11-23T10:08:38;14.63;;;7.95;;
51292;SDS011;37377;45.186;9.778;2022-11-23T10:11:50;12.57;;;7.68;;
51292;SDS011;37377;45.186;9.778;2022-11-23T10:22:08;13.48;;;6.93;;
51292;SDS011;37377;45.186;9.778;2022-11-23T10:24:48;8.45;;;6.80;;
51292;SDS011;37377;45.186;9.778;2022-11-23T10:27:24;24.25;;;6.93;;
51292;SDS011;37377;45.186;9.778;2022-11-23T10:30:01;18.48;;;6.70;;
51292;SDS011;37377;45.186;9.778;2022-11-23T10:32:30;20.55;;;6.70;;
51292;SDS011;37377;45.186;9.778;2022-11-23T10:35:07;15.65;;;6.53;;
51292;SDS011;37377;45.186;9.778;2022-11-23T10:37:38;16.70;;;6.65;;
51292;SDS011;37377;45.186;9.778;2022-11-23T10:40:24;19.83;;;6.95;;
51292;SDS011;37377;45.186;9.778;2022-11-23T10:43:05;17.47;;;7.57;;
51292;SDS011;37377;45.186;9.778;2022-11-23T10:45:36;32.65;;;8.63;;
51292;SDS011;37377;45.186;9.778;2022-11-23T10:48:03;29.15;;;7.22;;
51292;SDS011;37377;45.186;9.778;2022-11-23T10:53:01;13.20;;;7.43;;
51292;SDS011;37377;45.186;9.778;2022-11-23T10:55:53;24.63;;;11.02;;
51292;SDS011;37377;45.186;9.778;2022-11-23T10:58:25;20.25;;;7.35;;
51292;SDS011;37377;45.186;9.778;2022-11-23T11:01:05;23.85;;;10.32;;
51292;SDS011;37377;45.186;9.778;2022-11-23T11:03:33;21.38;;;11.70;;
51292;SDS011;37377;45.186;9.778;2022-11-23T11:06:01;18.60;;;8.88;;
51292;SDS011;37377;45.186;9.778;2022-11-23T11:14:16;12.10;;;7.10;;
51292;SDS011;37377;45.186;9.778;2022-11-23T11:16:56;22.65;;;6.75;;
51292;SDS011;37377;45.186;9.778;2022-11-23T11:21:52;10.93;;;6.65;;
51292;SDS011;37377;45.186;9.778;2022-11-23T11:27:04;8.68;;;6.53;;
51292;SDS011;37377;45.186;9.778;2022-11-23T11:32:18;8.38;;;6.85;;
51292;SDS011;37377;45.186;9.778;2022-11-23T11:34:54;22.17;;;11.02;;
51292;SDS011;37377;45.186;9.778;2022-11-23T11:37:31;16.55;;;8.00;;
51292;SDS011;37377;45.186;9.778;2022-11-23T11:40:16;12.32;;;8.57;;
51292;SDS011;37377;45.186;9.778;2022-11-23T11:43:10;17.45;;;7.20;;
51292;SDS011;37377;45.186;9.778;2022-11-23T11:45:40;15.38;;;7.68;;
51292;SDS011;37377;45.186;9.778;2022-11-23T11:50:56;7.78;;;6.45;;
51292;SDS011;37377;45.186;9.778;2022-11-23T11:56:21;7.20;;;6.60;;
51292;SDS011;37377;45.186;9.778;2022-11-23T11:59:01;7.57;;;6.88;;
51292;SDS011;37377;45.186;9.778;2022-11-23T12:04:13;10.40;;;6.45;;
51292;SDS011;37377;45.186;9.778;2022-11-23T12:06:50;9.80;;;6.88;;
51292;SDS011;37377;45.186;9.778;2022-11-23T12:09:23;7.60;;;6.88;;
51292;SDS011;37377;45.186;9.778;2022-11-23T12:11:51;8.35;;;6.63;;
51292;SDS011;37377;45.186;9.778;2022-11-23T12:14:18;13.32;;;6.00;;
51292;SDS011;37377;45.186;9.778;2022-11-23T12:16:58;7.38;;;6.75;;
51292;SDS011;37377;45.186;9.778;2022-11-23T12:19:50;18.52;;;7.07;;
51292;SDS011;37377;45.186;9.778;2022-11-23T12:25:02;13.13;;;5.85;;
51292;SDS011;37377;45.186;9.778;2022-11-23T12:30:19;13.38;;;8.30;;
51292;SDS011;37377;45.186;9.778;2022-11-23T12:35:41;16.65;;;7.05;;
51292;SDS011;37377;45.186;9.778;2022-11-23T12:41:21;21.83;;;7.00;;
51292;SDS011;37377;45.186;9.778;2022-11-23T12:48:55;8.77;;;6.80;;
51292;SDS011;37377;45.186;9.778;2022-11-23T12:57:13;7.90;;;7.10;;
51292;SDS011;37377;45.186;9.778;2022-11-23T12:59:50;11.85;;;6.20;;
51292;SDS011;37377;45.186;9.778;2022-11-23T13:13:11;9.13;;;6.13;;
51292;SDS011;37377;45.186;9.778;2022-11-23T13:23:37;7.28;;;5.53;;
51292;SDS011;37377;45.186;9.778;2022-11-23T13:26:15;13.43;;;5.80;;
51292;SDS011;37377;45.186;9.778;2022-11-23T13:28:44;8.45;;;5.70;;
51292;SDS011;37377;45.186;9.778;2022-11-23T13:33:43;19.20;;;6.30;;
51292;SDS011;37377;45.186;9.778;2022-11-23T13:36:11;5.53;;;5.03;;
51292;SDS011;37377;45.186;9.778;2022-11-23T13:38:45;12.23;;;5.15;;
51292;SDS011;37377;45.186;9.778;2022-11-23T13:52:03;20.43;;;6.43;;
51292;SDS011;37377;45.186;9.778;2022-11-23T13:54:31;19.40;;;5.57;;
51292;SDS011;37377;45.186;9.778;2022-11-23T13:57:03;11.95;;;5.70;;
51292;SDS011;37377;45.186;9.778;2022-11-23T13:59:33;5.70;;;5.05;;
51292;SDS011;37377;45.186;9.778;2022-11-23T14:04:34;17.65;;;5.88;;
51292;SDS011;37377;45.186;9.778;2022-11-23T14:09:35;9.90;;;6.15;;
51292;SDS011;37377;45.186;9.778;2022-11-23T14:14:45;10.95;;;6.57;;
51292;SDS011;37377;45.186;9.778;2022-11-23T14:22:35;14.70;;;6.32;;
51292;SDS011;37377;45.186;9.778;2022-11-23T14:41:32;17.15;;;10.60;;
51292;SDS011;37377;45.186;9.778;2022-11-23T14:44:03;9.23;;;7.15;;
51292;SDS011;37377;45.186;9.778;2022-11-23T14:46:32;13.27;;;7.97;;
51292;SDS011;37377;45.186;9.778;2022-11-23T14:49:05;10.63;;;5.60;;
51292;SDS011;37377;45.186;9.778;2022-11-23T14:54:01;8.10;;;5.03;;
51292;SDS011;37377;45.186;9.778;2022-11-23T14:56:32;13.90;;;6.80;;
51292;SDS011;37377;45.186;9.778;2022-11-23T14:59:01;22.55;;;9.88;;
51292;SDS011;37377;45.186;9.778;2022-11-23T15:01:28;17.52;;;7.05;;
51292;SDS011;37377;45.186;9.778;2022-11-23T15:03:57;10.43;;;7.43;;
51292;SDS011;37377;45.186;9.778;2022-11-23T15:06:26;20.27;;;7.47;;
51292;SDS011;37377;45.186;9.778;2022-11-23T15:11:27;8.48;;;5.78;;
51292;SDS011;37377;45.186;9.778;2022-11-23T15:13:56;11.75;;;6.45;;
51292;SDS011;37377;45.186;9.778;2022-11-23T15:16:31;15.77;;;5.77;;
51292;SDS011;37377;45.186;9.778;2022-11-23T15:19:15;13.07;;;5.90;;
51292;SDS011;37377;45.186;9.778;2022-11-23T15:21:42;9.30;;;5.63;;
51292;SDS011;37377;45.186;9.778;2022-11-23T15:24:18;8.10;;;5.70;;
51292;SDS011;37377;45.186;9.778;2022-11-23T15:26:47;13.95;;;6.18;;
51292;SDS011;37377;45.186;9.778;2022-11-23T15:29:32;7.53;;;6.07;;
51292;SDS011;37377;45.186;9.778;2022-11-23T15:32:03;12.23;;;6.18;;
51292;SDS011;37377;45.186;9.778;2022-11-23T15:34:50;11.68;;;7.22;;
51292;SDS011;37377;45.186;9.778;2022-11-23T15:37:23;19.88;;;13.65;;
51292;SDS011;37377;45.186;9.778;2022-11-23T15:39:58;23.73;;;17.98;;
51292;SDS011;37377;45.186;9.778;2022-11-23T15:42:34;25.75;;;16.60;;
51292;SDS011;37377;45.186;9.778;2022-11-23T15:45:02;22.73;;;14.85;;
51292;SDS011;37377;45.186;9.778;2022-11-23T15:47:36;17.65;;;10.30;;
51292;SDS011;37377;45.186;9.778;2022-11-23T15:50:08;23.50;;;13.98;;
51292;SDS011;37377;45.186;9.778;2022-11-23T15:52:35;23.80;;;13.20;;
51292;SDS011;37377;45.186;9.778;2022-11-23T15:55:04;15.55;;;11.65;;
51292;SDS011;37377;45.186;9.778;2022-11-23T15:57:38;25.75;;;12.45;;
51292;SDS011;37377;45.186;9.778;2022-11-23T16:00:25;17.33;;;12.80;;
51292;SDS011;37377;45.186;9.778;2022-11-23T16:03:19;18.90;;;9.40;;
51292;SDS011;37377;45.186;9.778;2022-11-23T16:08:45;16.95;;;9.18;;
51292;SDS011;37377;45.186;9.778;2022-11-23T16:11:33;8.93;;;7.07;;
51292;SDS011;37377;45.186;9.778;2022-11-23T16:14:09;9.25;;;7.85;;
51292;SDS011;37377;45.186;9.778;2022-11-23T16:16:39;12.15;;;8.20;;
51292;SDS011;37377;45.186;9.778;2022-11-23T16:19:23;23.40;;;8.90;;
51292;SDS011;37377;45.186;9.778;2022-11-23T16:21:56;50.23;;;11.07;;
51292;SDS011;37377;45.186;9.778;2022-11-23T16:24:33;26.58;;;9.50;;
51292;SDS011;37377;45.186;9.778;2022-11-23T16:27:10;13.25;;;9.40;;
51292;SDS011;37377;45.186;9.778;2022-11-23T16:29:38;22.23;;;9.82;;
51292;SDS011;37377;45.186;9.778;2022-11-23T16:32:28;15.75;;;9.35;;
51292;SDS011;37377;45.186;9.778;2022-11-23T16:35:16;17.77;;;10.13;;
51292;SDS011;37377;45.186;9.778;2022-11-23T16:37:45;18.85;;;10.43;;
51292;SDS011;37377;45.186;9.778;2022-11-23T16:40:18;36.72;;;11.27;;
51292;SDS011;37377;45.186;9.778;2022-11-23T16:42:57;17.10;;;12.77;;
51292;SDS011;37377;45.186;9.778;2022-11-23T16:45:29;22.60;;;11.95;;
51292;SDS011;37377;45.186;9.778;2022-11-23T16:50:35;18.75;;;7.63;;
51292;SDS011;37377;45.186;9.778;2022-11-23T16:53:11;14.90;;;8.45;;
51292;SDS011;37377;45.186;9.778;2022-11-23T16:55:38;16.52;;;8.45;;
51292;SDS011;37377;45.186;9.778;2022-11-23T16:58:23;21.88;;;9.32;;
51292;SDS011;37377;45.186;9.778;2022-11-23T17:00:53;82.32;;;41.78;;
51292;SDS011;37377;45.186;9.778;2022-11-23T17:03:24;99.93;;;52.33;;
51292;SDS011;37377;45.186;9.778;2022-11-23T17:05:51;67.00;;;32.60;;
51292;SDS011;37377;45.186;9.778;2022-11-23T17:08:18;33.88;;;20.13;;
51292;SDS011;37377;45.186;9.778;2022-11-23T17:10:49;22.55;;;11.82;;
51292;SDS011;37377;45.186;9.778;2022-11-23T17:13:19;19.77;;;10.52;;
51292;SDS011;37377;45.186;9.778;2022-11-23T17:15:47;12.80;;;8.95;;
51292;SDS011;37377;45.186;9.778;2022-11-23T17:18:16;15.80;;;6.45;;
51292;SDS011;37377;45.186;9.778;2022-11-23T17:20:44;15.15;;;7.15;;